Terminal Aerodrome Forecast
Issued by NWS Louisville, KY

Home | Current Version | Previous Version | Text Only | Print | Product List | Glossary On
Versions: 1 2 3 4 5 6 7 8 9 10 11 12 13
000
FTUS43 KLMK 201100
TAFLEX
TAF
KLEX 201120Z 2012/2112 17007KT P6SM FEW040 SCT250
     FM201500 21012KT P6SM SCT045
     FM210000 20006KT P6SM SCT250=

USA.gov is the U.S. government's official web portal to all federal, state and local government web resources and services.